地図

経路データ

SID SEASON NUMBER BASIN SUBBASIN NAME ISO_TIME NATURE LAT LON WMO_WIND WMO_PRES WMO_AGENCY TRACK_TYPE DIST2LAND LANDFALL IFLAG USA_AGENCY USA_ATCF_ID USA_LAT USA_LON USA_RECORD USA_STATUS USA_WIND USA_PRES USA_SSHS USA_R34_NE USA_R34_SE USA_R34_SW USA_R34_NW USA_R50_NE USA_R50_SE USA_R50_SW USA_R50_NW USA_R64_NE USA_R64_SE USA_R64_SW USA_R64_NW USA_POCI USA_ROCI USA_RMW USA_EYE TOKYO_LAT TOKYO_LON TOKYO_GRADE TOKYO_WIND TOKYO_PRES TOKYO_R50_DIR TOKYO_R50_LONG TOKYO_R50_SHORT TOKYO_R30_DIR TOKYO_R30_LONG TOKYO_R30_SHORT TOKYO_LAND CMA_LAT CMA_LON CMA_CAT CMA_WIND CMA_PRES HKO_LAT HKO_LON HKO_CAT HKO_WIND HKO_PRES NEWDELHI_LAT NEWDELHI_LON NEWDELHI_GRADE NEWDELHI_WIND NEWDELHI_PRES NEWDELHI_CI NEWDELHI_DP NEWDELHI_POCI REUNION_LAT REUNION_LON REUNION_TYPE REUNION_WIND REUNION_PRES REUNION_TNUM REUNION_CI REUNION_RMW REUNION_R34_NE REUNION_R34_SE REUNION_R34_SW REUNION_R34_NW REUNION_R50_NE REUNION_R50_SE REUNION_R50_SW REUNION_R50_NW REUNION_R64_NE REUNION_R64_SE REUNION_R64_SW REUNION_R64_NW BOM_LAT BOM_LON BOM_TYPE BOM_WIND BOM_PRES BOM_TNUM BOM_CI BOM_RMW BOM_R34_NE BOM_R34_SE BOM_R34_SW BOM_R34_NW BOM_R50_NE BOM_R50_SE BOM_R50_SW BOM_R50_NW BOM_R64_NE BOM_R64_SE BOM_R64_SW BOM_R64_NW BOM_ROCI BOM_POCI BOM_EYE BOM_POS_METHOD BOM_PRES_METHOD NADI_LAT NADI_LON NADI_CAT NADI_WIND NADI_PRES WELLINGTON_LAT WELLINGTON_LON WELLINGTON_WIND WELLINGTON_PRES DS824_LAT DS824_LON DS824_STAGE DS824_WIND DS824_PRES TD9636_LAT TD9636_LON TD9636_STAGE TD9636_WIND TD9636_PRES TD9635_LAT TD9635_LON TD9635_WIND TD9635_PRES TD9635_ROCI NEUMANN_LAT NEUMANN_LON NEUMANN_CLASS NEUMANN_WIND NEUMANN_PRES MLC_LAT MLC_LON MLC_CLASS MLC_WIND MLC_PRES USA_GUST BOM_GUST BOM_GUST_PER REUNION_GUST REUNION_GUST_PER USA_SEAHGT USA_SEARAD_NE USA_SEARAD_SE USA_SEARAD_SW USA_SEARAD_NW STORM_SPEED STORM_DIR
1995235N24281 1995 53 NA NA JERRY 1995-08-22 18:00:00 TS 23.7000 -78.7000 20 1010 hurdat_atl main 90 82 O_____________ hurdat_atl AL111995 23.7000 -78.7000 TD 20 1010 -1 4 336
1995235N24281 1995 53 NA NA JERRY 1995-08-22 21:00:00 TS 23.9050 -78.7949 main 82 60 P_____________ AL111995 23.9050 -78.7949 TD 22 1009 -1 5 340
1995235N24281 1995 53 NA NA JERRY 1995-08-23 00:00:00 TS 24.2000 -78.9000 25 1009 hurdat_atl main 60 46 O_____________ hurdat_atl AL111995 24.2000 -78.9000 TD 25 1009 -1 8 344
1995235N24281 1995 53 NA NA JERRY 1995-08-23 03:00:00 TS 24.6475 -79.0277 main 50 50 P_____________ AL111995 24.6475 -79.0277 TD 27 1008 -1 10 345
1995235N24281 1995 53 NA NA JERRY 1995-08-23 06:00:00 TS 25.2000 -79.2000 30 1008 hurdat_atl main 97 70 O_____________ hurdat_atl AL111995 25.2000 -79.2000 TD 30 1008 -1 12 343
1995235N24281 1995 53 NA NA JERRY 1995-08-23 09:00:00 TS 25.8300 -79.4347 main 70 39 P_____________ AL111995 25.8300 -79.4347 TD 32 1008 -1 13 339
1995235N24281 1995 53 NA NA JERRY 1995-08-23 12:00:00 TS 26.4000 -79.7000 35 1008 hurdat_atl main 39 0 O_____________ hurdat_atl AL111995 26.4000 -79.7000 TS 35 1008 0 11 333
1995235N24281 1995 53 NA NA JERRY 1995-08-23 15:00:00 TS 26.7675 -79.9652 main 0 0 P_____________ AL111995 26.7675 -79.9652 TS 35 1007 0 8 323
1995235N24281 1995 53 NA NA JERRY 1995-08-23 18:00:00 TS 27.0000 -80.2000 35 1006 hurdat_atl main 0 0 O_____________ hurdat_atl AL111995 27.0000 -80.2000 L TS 35 1006 0 5 320
1995235N24281 1995 53 NA NA JERRY 1995-08-23 21:00:00 TS 27.1648 -80.3429 main 0 0 P_____________ AL111995 27.1648 -80.3429 TS 35 1005 0 4 318
1995235N24281 1995 53 NA NA JERRY 1995-08-24 00:00:00 TS 27.3000 -80.5000 35 1005 hurdat_atl main 0 0 O_____________ hurdat_atl AL111995 27.3000 -80.5000 TS 35 1005 0 5 309
1995235N24281 1995 53 NA NA JERRY 1995-08-24 03:00:00 TS 27.4700 -80.7702 main 0 0 P_____________ AL111995 27.4700 -80.7702 TS 35 1005 0 7 307
1995235N24281 1995 53 NA NA JERRY 1995-08-24 06:00:00 TS 27.7000 -81.1000 35 1005 hurdat_atl main 0 0 O_____________ hurdat_atl AL111995 27.7000 -81.1000 TS 35 1005 0 8 315
1995235N24281 1995 53 NA NA JERRY 1995-08-24 09:00:00 TS 28.0499 -81.4348 main 0 0 P_____________ AL111995 28.0499 -81.4348 TS 35 1004 0 9 319
1995235N24281 1995 53 NA NA JERRY 1995-08-24 12:00:00 TS 28.4000 -81.8000 35 1004 hurdat_atl main 0 0 O_____________ hurdat_atl AL111995 28.4000 -81.8000 TS 35 1004 0 9 310
1995235N24281 1995 53 NA NA JERRY 1995-08-24 15:00:00 TS 28.6377 -82.2300 main 0 0 P_____________ AL111995 28.6377 -82.2300 TS 32 1003 -1 8 300
1995235N24281 1995 53 NA NA JERRY 1995-08-24 18:00:00 TS 28.8000 -82.6000 30 1002 hurdat_atl main 0 0 O_____________ hurdat_atl AL111995 28.8000 -82.6000 TD 30 1002 -1 6 300
1995235N24281 1995 53 NA GM JERRY 1995-08-24 21:00:00 TS 28.9148 -82.7803 main 11 0 P_____________ AL111995 28.9148 -82.7803 TD 30 1002 -1 3 307
1995235N24281 1995 53 NA GM JERRY 1995-08-25 00:00:00 TS 29.0000 -82.9000 30 1002 hurdat_atl main 9 9 O_____________ hurdat_atl AL111995 29.0000 -82.9000 TD 30 1002 -1 3 298
1995235N24281 1995 53 NA GM JERRY 1995-08-25 03:00:00 TS 29.0701 -83.1225 main 11 11 P_____________ AL111995 29.0701 -83.1225 TD 30 1002 -1 4 300
1995235N24281 1995 53 NA GM JERRY 1995-08-25 06:00:00 TS 29.2000 -83.3000 30 1002 hurdat_atl main 19 0 O_____________ hurdat_atl AL111995 29.2000 -83.3000 TD 30 1002 -1 4 335
1995235N24281 1995 53 NA GM JERRY 1995-08-25 09:00:00 TS 29.4700 -83.3376 main 0 0 P_____________ AL111995 29.4700 -83.3376 TD 27 1003 -1 6 1
1995235N24281 1995 53 NA NA JERRY 1995-08-25 12:00:00 TS 29.8000 -83.3000 25 1004 hurdat_atl main 0 0 O_____________ hurdat_atl AL111995 29.8000 -83.3000 TD 25 1004 -1 7 8
1995235N24281 1995 53 NA NA JERRY 1995-08-25 15:00:00 TS 30.1225 -83.2352 main 0 0 P_____________ AL111995 30.1225 -83.2352 TD 25 1004 -1 6 8
1995235N24281 1995 53 NA NA JERRY 1995-08-25 18:00:00 TS 30.4000 -83.2000 25 1005 hurdat_atl main 0 0 O_____________ hurdat_atl AL111995 30.4000 -83.2000 TD 25 1005 -1 4 354
1995235N24281 1995 53 NA NA JERRY 1995-08-25 21:00:00 TS 30.5500 -83.2701 main 0 0 P_____________ AL111995 30.5500 -83.2701 TD 25 1005 -1 3 330
1995235N24281 1995 53 NA NA JERRY 1995-08-26 00:00:00 TS 30.7000 -83.4000 25 1005 hurdat_atl main 0 0 O_____________ hurdat_atl AL111995 30.7000 -83.4000 TD 25 1005 -1 5 331
1995235N24281 1995 53 NA NA JERRY 1995-08-26 03:00:00 TS 30.9850 -83.5498 main 0 0 P_____________ AL111995 30.9850 -83.5498 TD 22 1005 -1 7 337
1995235N24281 1995 53 NA NA JERRY 1995-08-26 06:00:00 TS 31.3000 -83.7000 20 1005 hurdat_atl main 0 0 O_____________ hurdat_atl AL111995 31.3000 -83.7000 TD 20 1005 -1 6 338
1995235N24281 1995 53 NA NA JERRY 1995-08-26 09:00:00 TS 31.5500 -83.8151 main 0 0 P_____________ AL111995 31.5500 -83.8151 TD 20 1005 -1 5 341
1995235N24281 1995 53 NA NA JERRY 1995-08-26 12:00:00 TS 31.8000 -83.9000 20 1005 hurdat_atl main 0 0 O_____________ hurdat_atl AL111995 31.8000 -83.9000 TD 20 1005 -1 6 347
1995235N24281 1995 53 NA NA JERRY 1995-08-26 15:00:00 TS 32.0925 -83.9650 main 0 0 P_____________ AL111995 32.0925 -83.9650 TD 20 1005 -1 6 352
1995235N24281 1995 53 NA NA JERRY 1995-08-26 18:00:00 TS 32.4000 -84.0000 20 1006 hurdat_atl main 0 0 O_____________ hurdat_atl AL111995 32.4000 -84.0000 TD 20 1006 -1 6 356
1995235N24281 1995 53 NA NA JERRY 1995-08-26 21:00:00 TS 32.7075 -84.0150 main 0 0 P_____________ AL111995 32.7075 -84.0150 TD 20 1006 -1 6 1
1995235N24281 1995 53 NA NA JERRY 1995-08-27 00:00:00 TS 33.0000 -84.0000 20 1006 hurdat_atl main 0 0 O_____________ hurdat_atl AL111995 33.0000 -84.0000 TD 20 1006 -1 6 4
1995235N24281 1995 53 NA NA JERRY 1995-08-27 03:00:00 TS 33.2725 -83.9725 main 0 0 P_____________ AL111995 33.2725 -83.9725 TD 20 1006 -1 5 9
1995235N24281 1995 53 NA NA JERRY 1995-08-27 06:00:00 TS 33.5000 -83.9000 20 1006 hurdat_atl main 0 0 O_____________ hurdat_atl AL111995 33.5000 -83.9000 TD 20 1006 -1 4 21
1995235N24281 1995 53 NA NA JERRY 1995-08-27 09:00:00 TS 33.6799 -83.7875 main 0 0 P_____________ AL111995 33.6799 -83.7875 TD 20 1006 -1 4 40
1995235N24281 1995 53 NA NA JERRY 1995-08-27 12:00:00 TS 33.8000 -83.6000 20 1006 hurdat_atl main 0 0 O_____________ hurdat_atl AL111995 33.8000 -83.6000 TD 20 1006 -1 4 63
1995235N24281 1995 53 NA NA JERRY 1995-08-27 15:00:00 TS 33.8801 -83.3226 main 0 0 P_____________ AL111995 33.8801 -83.3226 TD 20 1006 -1 5 79
1995235N24281 1995 53 NA NA JERRY 1995-08-27 18:00:00 TS 33.9000 -83.0000 20 1006 hurdat_atl main 0 0 O_____________ hurdat_atl AL111995 33.9000 -83.0000 TD 20 1006 -1 5 92
1995235N24281 1995 53 NA NA JERRY 1995-08-27 21:00:00 TS 33.8651 -82.6924 main 0 0 P_____________ AL111995 33.8651 -82.6924 TD 20 1006 -1 5 101
1995235N24281 1995 53 NA NA JERRY 1995-08-28 00:00:00 TS 33.8000 -82.4000 20 1006 hurdat_atl main 0 O_____________ hurdat_atl AL111995 33.8000 -82.4000 TD 20 1006 -1 5 105

IBTrACS Databaseについて

本データベースは、米国NOAAが公開する1842年以降の世界の熱帯低気圧のベストトラックデータアーカイブInternational Best Track Archive for Climate Stewardship (IBTrACS)を、ウェブで閲覧しやすい形式に変換したものです。

最終更新日:2021-12-03